createdAt,value
2019-01-06T00:02:32.329Z,87.00
2019-01-06T00:05:22.207Z,87.40
2019-01-06T00:08:10.196Z,87.40
2019-01-06T00:10:59.332Z,87.60
2019-01-06T00:13:57.646Z,86.60
2019-01-06T00:16:47.007Z,87.30
2019-01-06T00:19:47.082Z,87.10
2019-01-06T00:22:42.473Z,87.20
2019-01-06T00:25:30.890Z,87.20
2019-01-06T00:28:26.472Z,87.40
2019-01-06T00:31:18.692Z,86.50
2019-01-06T00:34:26.519Z,86.40
2019-01-06T00:37:24.662Z,86.60
2019-01-06T00:40:14.424Z,87.10
2019-01-06T00:43:21.831Z,86.90
2019-01-06T00:46:02.923Z,86.40
2019-01-06T00:49:10.240Z,86.50
2019-01-06T00:51:58.050Z,86.60
2019-01-06T00:54:46.052Z,86.50
2019-01-06T00:57:34.154Z,86.50
2019-01-06T01:00:22.766Z,86.50
2019-01-06T01:03:10.457Z,86.50
2019-01-06T01:06:11.560Z,86.40
2019-01-06T01:08:59.572Z,85.70
2019-01-06T01:11:54.816Z,84.80
2019-01-06T01:14:42.170Z,84.20
2019-01-06T01:17:37.220Z,84.00
2019-01-06T01:20:26.520Z,83.70
2019-01-06T01:23:14.327Z,84.20
2019-01-06T01:26:06.408Z,84.40
2019-01-06T01:28:58.760Z,84.40
2019-01-06T01:31:57.282Z,84.60
2019-01-06T01:34:52.183Z,84.80
2019-01-06T01:37:48.653Z,85.40
2019-01-06T01:40:47.034Z,85.60
2019-01-06T01:43:40.449Z,86.00
2019-01-06T01:46:23.171Z,85.90
2019-01-06T01:49:20.714Z,86.20
2019-01-06T01:52:06.530Z,86.30
2019-01-06T01:54:52.178Z,86.10
2019-01-06T01:57:40.220Z,86.40
2019-01-06T02:00:44.132Z,86.70
2019-01-06T02:03:33.446Z,86.40
2019-01-06T02:06:21.212Z,85.70
2019-01-06T02:09:01.922Z,85.70
2019-01-06T02:11:51.560Z,85.70
2019-01-06T02:14:43.960Z,85.10
2019-01-06T02:17:40.080Z,85.30
2019-01-06T02:20:47.734Z,85.60
2019-01-06T02:23:37.020Z,86.00
2019-01-06T02:26:26.050Z,86.60
2019-01-06T02:29:09.996Z,86.30
2019-01-06T02:31:57.900Z,86.40
2019-01-06T02:34:47.160Z,85.90
2019-01-06T02:37:26.576Z,85.10
2019-01-06T02:40:18.738Z,85.10
2019-01-06T02:43:26.184Z,85.20
2019-01-06T02:46:31.915Z,84.50
2019-01-06T02:49:39.349Z,84.70
2019-01-06T02:52:27.334Z,82.70
2019-01-06T02:55:15.570Z,82.20
2019-01-06T02:58:03.456Z,82.10
2019-01-06T03:00:58.706Z,82.30
2019-01-06T03:03:38.220Z,82.50
2019-01-06T03:06:42.883Z,82.80
2019-01-06T03:09:24.946Z,81.70
2019-01-06T03:12:13.049Z,81.30
2019-01-06T03:15:13.312Z,81.40
2019-01-06T03:18:00.976Z,82.00
2019-01-06T03:21:03.233Z,82.00
2019-01-06T03:23:57.842Z,82.10
2019-01-06T03:26:41.124Z,80.10
2019-01-06T03:29:31.913Z,79.40
2019-01-06T03:32:20.173Z,79.40
2019-01-06T03:35:08.386Z,79.40
2019-01-06T03:37:56.448Z,79.80
2019-01-06T03:40:41.065Z,79.30
2019-01-06T03:43:27.737Z,78.70
2019-01-06T03:46:15.750Z,77.80
2019-01-06T03:49:03.848Z,77.50
2019-01-06T03:51:47.880Z,77.90
2019-01-06T03:54:46.622Z,77.60
2019-01-06T03:57:34.757Z,78.20
2019-01-06T04:00:42.902Z,78.30
2019-01-06T04:03:32.236Z,78.20
2019-01-06T04:06:20.536Z,77.40
2019-01-06T04:09:21.642Z,77.70
2019-01-06T04:12:09.467Z,77.70
2019-01-06T04:15:01.645Z,77.40
2019-01-06T04:17:59.846Z,77.90
2019-01-06T04:21:07.324Z,77.80
2019-01-06T04:24:15.697Z,77.50
2019-01-06T04:27:00.420Z,77.70
2019-01-06T04:29:48.388Z,78.00
2019-01-06T04:32:40.547Z,78.50
2019-01-06T04:35:45.180Z,78.50
2019-01-06T04:38:33.060Z,78.60
2019-01-06T04:41:22.348Z,78.70
2019-01-06T04:44:10.392Z,78.30
2019-01-06T04:46:57.141Z,78.60
2019-01-06T04:49:45.070Z,78.30
2019-01-06T04:52:33.137Z,78.40
2019-01-06T04:55:38.249Z,78.50
2019-01-06T04:58:26.324Z,78.90
2019-01-06T05:01:24.502Z,79.20
2019-01-06T05:04:13.821Z,79.20
2019-01-06T05:07:01.722Z,79.20
2019-01-06T05:09:49.873Z,79.50
2019-01-06T05:12:39.192Z,79.40
2019-01-06T05:15:37.112Z,78.70
2019-01-06T05:18:25.346Z,79.50
2019-01-06T05:21:14.624Z,79.50
2019-01-06T05:24:12.036Z,79.20
2019-01-06T05:27:10.776Z,78.80
2019-01-06T05:30:00.216Z,79.10
2019-01-06T05:32:58.370Z,79.40
2019-01-06T05:35:46.360Z,79.40
2019-01-06T05:38:34.367Z,79.10
2019-01-06T05:41:22.512Z,79.10
2019-01-06T05:44:10.817Z,79.30
2019-01-06T05:47:06.149Z,79.60
2019-01-06T05:49:55.440Z,78.30
2019-01-06T05:52:44.699Z,78.10
2019-01-06T05:55:36.036Z,78.10
2019-01-06T05:58:42.011Z,78.00
2019-01-06T06:01:31.296Z,77.00
2019-01-06T06:04:29.506Z,76.40
2019-01-06T06:07:17.259Z,75.20
2019-01-06T06:10:24.755Z,75.20
2019-01-06T06:13:12.646Z,75.40
2019-01-06T06:16:17.226Z,73.70
2019-01-06T06:19:11.021Z,73.10
2019-01-06T06:21:59.120Z,73.70
2019-01-06T06:24:44.150Z,74.10
2019-01-06T06:27:24.347Z,74.20
2019-01-06T06:30:12.520Z,74.30
2019-01-06T06:33:00.470Z,74.30
2019-01-06T06:35:48.736Z,74.00
2019-01-06T06:38:37.409Z,73.40
2019-01-06T06:41:41.828Z,73.90
2019-01-06T06:44:34.064Z,74.20
2019-01-06T06:47:19.922Z,74.00
2019-01-06T06:50:08.088Z,74.50
2019-01-06T06:52:55.932Z,73.90
2019-01-06T06:55:43.903Z,73.90
2019-01-06T06:58:31.768Z,74.00
2019-01-06T07:01:51.334Z,73.70
2019-01-06T07:04:47.120Z,74.10
2019-01-06T07:07:35.436Z,74.10
2019-01-06T07:10:24.867Z,74.30
2019-01-06T07:13:14.113Z,74.80
2019-01-06T07:16:02.159Z,74.60
2019-01-06T07:18:49.943Z,74.80
2019-01-06T07:21:43.394Z,75.20
2019-01-06T07:24:31.428Z,75.50
2019-01-06T07:27:20.692Z,75.80
2019-01-06T07:30:09.986Z,76.10
2019-01-06T07:33:14.702Z,76.50
2019-01-06T07:35:55.156Z,76.70
2019-01-06T07:38:44.514Z,77.10
2019-01-06T07:41:33.780Z,77.00
2019-01-06T07:44:21.981Z,77.40
2019-01-06T07:47:11.265Z,77.10
2019-01-06T07:49:59.536Z,76.80
2019-01-06T07:52:48.807Z,77.10
2019-01-06T07:55:41.120Z,77.00
2019-01-06T07:58:26.072Z,77.80
2019-01-06T08:01:30.699Z,78.00
2019-01-06T08:04:38.301Z,78.70
2019-01-06T08:07:42.781Z,79.40
2019-01-06T08:10:30.448Z,79.80
2019-01-06T08:13:19.721Z,79.50
2019-01-06T08:16:07.573Z,80.10
2019-01-06T08:19:02.565Z,81.20
2019-01-06T08:21:50.345Z,80.80
2019-01-06T08:24:38.725Z,81.10
2019-01-06T08:27:26.644Z,81.90
2019-01-06T08:30:21.534Z,82.60
2019-01-06T08:33:09.693Z,83.10
2019-01-06T08:36:10.832Z,82.80
2019-01-06T08:38:57.599Z,82.80
2019-01-06T08:41:41.228Z,83.40
2019-01-06T08:44:30.486Z,83.20
2019-01-06T08:47:22.641Z,83.80
2019-01-06T08:50:14.765Z,83.80
2019-01-06T08:53:03.051Z,84.40
2019-01-06T08:55:52.313Z,84.20
2019-01-06T08:58:40.549Z,84.50
2019-01-06T09:01:36.149Z,84.50
2019-01-06T09:04:25.541Z,84.30
2019-01-06T09:07:14.808Z,85.20
2019-01-06T09:10:00.413Z,84.40
2019-01-06T09:12:55.948Z,84.50
2019-01-06T09:15:44.135Z,84.80
2019-01-06T09:18:30.468Z,85.40
2019-01-06T09:21:35.129Z,85.10
2019-01-06T09:24:23.838Z,85.00
2019-01-06T09:27:18.745Z,84.20
2019-01-06T09:30:08.037Z,83.50
2019-01-06T09:33:08.952Z,83.10
2019-01-06T09:36:04.051Z,83.30
2019-01-06T09:38:49.129Z,84.00
2019-01-06T09:41:36.613Z,84.80
2019-01-06T09:44:24.528Z,84.70
2019-01-06T09:47:04.922Z,84.40
2019-01-06T09:50:02.965Z,83.20
2019-01-06T09:53:07.457Z,82.90
2019-01-06T09:55:55.101Z,81.60
2019-01-06T09:58:43.036Z,80.70
2019-01-06T10:01:52.764Z,80.90
2019-01-06T10:04:40.496Z,78.80
2019-01-06T10:07:38.828Z,77.70
2019-01-06T10:10:22.431Z,76.40
2019-01-06T10:13:29.872Z,76.20
2019-01-06T10:16:18.844Z,75.70
2019-01-06T10:19:10.990Z,74.40
2019-01-06T10:22:00.225Z,73.70
2019-01-06T10:24:52.135Z,73.30
2019-01-06T10:27:46.201Z,71.20
2019-01-06T10:30:53.461Z,69.20
2019-01-06T10:33:43.749Z,65.30
2019-01-06T10:36:29.681Z,62.30
2019-01-06T10:39:21.514Z,61.00
2019-01-06T10:42:16.555Z,59.10
2019-01-06T10:45:03.376Z,57.80
2019-01-06T10:47:50.370Z,58.30
2019-01-06T10:50:52.770Z,57.60
2019-01-06T10:53:57.412Z,58.10
2019-01-06T10:56:52.444Z,59.10
2019-01-06T10:59:45.301Z,59.80
2019-01-06T11:02:34.569Z,61.40
2019-01-06T11:05:33.662Z,62.30
2019-01-06T11:08:22.337Z,62.80
2019-01-06T11:11:11.660Z,63.30
2019-01-06T11:13:59.523Z,64.30
2019-01-06T11:17:07.060Z,65.00
2019-01-06T11:19:55.037Z,65.20
2019-01-06T11:22:47.683Z,66.40
2019-01-06T11:25:41.561Z,67.30
2019-01-06T11:28:30.913Z,67.70
2019-01-06T11:31:18.873Z,67.40
2019-01-06T11:34:06.620Z,67.70
2019-01-06T11:37:12.047Z,68.10
2019-01-06T11:40:01.652Z,68.70
2019-01-06T11:43:02.976Z,68.80
2019-01-06T11:45:52.252Z,68.60
2019-01-06T11:48:40.330Z,68.10
2019-01-06T11:51:32.431Z,68.20
2019-01-06T11:54:24.504Z,68.30
2019-01-06T11:57:12.692Z,68.40
2019-01-06T12:00:20.104Z,68.20
2019-01-06T12:03:06.934Z,68.10
2019-01-06T12:05:59.028Z,67.20
2019-01-06T12:08:51.077Z,67.40
2019-01-06T12:11:39.993Z,67.40
2019-01-06T12:14:35.143Z,68.00
2019-01-06T12:17:20.023Z,67.40
2019-01-06T12:20:24.651Z,67.80
2019-01-06T12:23:16.991Z,68.30
2019-01-06T12:26:16.716Z,68.50
2019-01-06T12:29:05.991Z,68.70
2019-01-06T12:31:53.820Z,69.30
2019-01-06T12:34:48.845Z,69.60
2019-01-06T12:37:36.623Z,70.00
2019-01-06T12:40:29.403Z,70.50
2019-01-06T12:43:19.273Z,70.50
2019-01-06T12:46:23.511Z,69.90
2019-01-06T12:49:11.204Z,70.00
2019-01-06T12:52:00.608Z,69.70
2019-01-06T12:54:49.610Z,70.20
2019-01-06T12:57:44.708Z,70.20
2019-01-06T13:00:32.868Z,70.30
2019-01-06T13:03:25.139Z,70.40
2019-01-06T13:06:20.576Z,71.90
2019-01-06T13:09:12.611Z,71.50
2019-01-06T13:12:14.268Z,71.90
2019-01-06T13:15:03.613Z,72.20
2019-01-06T13:18:11.221Z,71.40
2019-01-06T13:21:06.481Z,71.00
2019-01-06T13:23:44.701Z,69.80
2019-01-06T13:26:36.556Z,70.00
2019-01-06T13:29:45.069Z,70.40
2019-01-06T13:32:39.997Z,70.50
2019-01-06T13:35:32.120Z,71.30
2019-01-06T13:38:39.677Z,71.70
2019-01-06T13:41:34.294Z,72.00
2019-01-06T13:44:23.169Z,71.80
2019-01-06T13:47:10.955Z,72.10
2019-01-06T13:50:05.871Z,72.40
2019-01-06T13:52:59.461Z,73.10
2019-01-06T13:56:00.891Z,73.40
2019-01-06T13:59:02.132Z,73.70
2019-01-06T14:01:40.344Z,73.90
2019-01-06T14:04:29.615Z,74.30
2019-01-06T14:07:20.680Z,74.50
2019-01-06T14:10:17.261Z,74.50
2019-01-06T14:13:09.972Z,74.60
2019-01-06T14:16:00.409Z,74.30
2019-01-06T14:18:52.256Z,74.50
2019-01-06T14:21:50.690Z,74.70
2019-01-06T14:24:38.555Z,74.40
2019-01-06T14:27:26.680Z,74.50
2019-01-06T14:30:34.538Z,74.60
2019-01-06T14:33:21.242Z,75.10
2019-01-06T14:36:09.411Z,75.30
2019-01-06T14:39:11.030Z,75.40
2019-01-06T14:42:03.572Z,75.20
2019-01-06T14:44:51.553Z,75.20
2019-01-06T14:47:39.276Z,75.50
2019-01-06T14:50:38.568Z,75.40
2019-01-06T14:53:29.638Z,75.60
2019-01-06T14:56:17.463Z,75.70
2019-01-06T14:59:05.449Z,75.70
2019-01-06T15:02:09.785Z,75.40
2019-01-06T15:04:57.591Z,75.60
2019-01-06T15:07:45.838Z,76.00
2019-01-06T15:10:33.849Z,76.00
2019-01-06T15:13:25.811Z,76.00
2019-01-06T15:16:33.460Z,76.30
2019-01-06T15:19:31.773Z,76.30
2019-01-06T15:22:39.428Z,76.40
2019-01-06T15:25:28.693Z,76.70
2019-01-06T15:28:29.815Z,76.90
2019-01-06T15:31:17.613Z,77.10
2019-01-06T15:34:12.504Z,77.30
2019-01-06T15:37:13.549Z,77.30
2019-01-06T15:40:01.702Z,77.30
2019-01-06T15:42:49.441Z,77.80
2019-01-06T15:45:37.369Z,78.10
2019-01-06T15:48:30.499Z,78.30
2019-01-06T15:51:18.292Z,78.10
2019-01-06T15:54:12.376Z,78.20
2019-01-06T15:57:00.330Z,78.20
2019-01-06T15:59:56.004Z,78.30
2019-01-06T16:02:39.133Z,78.80
2019-01-06T16:05:40.583Z,79.30
2019-01-06T16:08:32.688Z,79.70
2019-01-06T16:11:22.271Z,79.80
2019-01-06T16:14:10.243Z,79.70
2019-01-06T16:17:01.174Z,80.00
2019-01-06T16:19:59.458Z,80.10
2019-01-06T16:22:56.555Z,80.30
2019-01-06T16:25:45.878Z,80.80
2019-01-06T16:28:35.159Z,80.90
2019-01-06T16:31:27.234Z,81.10
2019-01-06T16:34:15.144Z,81.40
2019-01-06T16:36:58.971Z,81.70
2019-01-06T16:39:46.830Z,81.90
2019-01-06T16:42:33.111Z,82.30
2019-01-06T16:45:28.683Z,82.50
2019-01-06T16:48:24.197Z,82.70
2019-01-06T16:51:12.365Z,83.10
2019-01-06T16:53:57.831Z,83.20
2019-01-06T16:56:47.111Z,83.40
2019-01-06T16:59:45.333Z,83.50
2019-01-06T17:02:46.777Z,83.80
2019-01-06T17:05:34.656Z,84.10
2019-01-06T17:08:22.563Z,84.20
2019-01-06T17:11:11.001Z,84.40
2019-01-06T17:14:03.013Z,84.20
2019-01-06T17:17:07.801Z,84.40
2019-01-06T17:19:58.123Z,84.70
2019-01-06T17:23:02.300Z,84.60
2019-01-06T17:25:57.568Z,84.40
2019-01-06T17:28:45.744Z,84.40
2019-01-06T17:31:53.122Z,84.30
2019-01-06T17:34:51.420Z,84.40
2019-01-06T17:37:39.350Z,84.30
2019-01-06T17:40:33.333Z,84.50
2019-01-06T17:43:20.947Z,84.70
2019-01-06T17:46:06.429Z,85.50
2019-01-06T17:48:51.704Z,84.70
2019-01-06T17:51:49.753Z,84.80
2019-01-06T17:54:57.067Z,85.00
2019-01-06T17:57:55.341Z,85.00
2019-01-06T18:00:50.457Z,85.10
2019-01-06T18:03:45.421Z,85.30
2019-01-06T18:06:33.659Z,85.40
2019-01-06T18:09:34.152Z,85.60
2019-01-06T18:12:24.434Z,85.60
2019-01-06T18:15:12.629Z,85.70
2019-01-06T18:18:00.771Z,85.70
2019-01-06T18:20:52.049Z,85.70
2019-01-06T18:23:39.713Z,85.70
2019-01-06T18:26:27.683Z,85.90
2019-01-06T18:29:13.747Z,85.70
2019-01-06T18:32:01.677Z,85.80
2019-01-06T18:35:09.194Z,85.70
2019-01-06T18:38:10.159Z,85.90
2019-01-06T18:40:53.682Z,86.00
2019-01-06T18:43:41.789Z,86.20
2019-01-06T18:46:40.061Z,86.50
2019-01-06T18:49:38.639Z,86.60
2019-01-06T18:52:26.785Z,86.60
2019-01-06T18:55:28.210Z,86.80
2019-01-06T18:58:20.353Z,86.80
2019-01-06T19:01:09.786Z,86.80
2019-01-06T19:04:10.941Z,87.10
2019-01-06T19:06:58.882Z,86.80
2019-01-06T19:09:43.002Z,86.90
2019-01-06T19:12:44.697Z,87.20
2019-01-06T19:15:29.678Z,87.40
2019-01-06T19:18:21.796Z,87.50
2019-01-06T19:21:10.583Z,87.90
2019-01-06T19:23:59.007Z,88.30
2019-01-06T19:27:06.760Z,88.60
2019-01-06T19:30:14.455Z,88.80
2019-01-06T19:33:15.894Z,88.90
2019-01-06T19:36:11.031Z,88.80
2019-01-06T19:38:59.198Z,88.80
2019-01-06T19:41:54.497Z,88.80
2019-01-06T19:44:44.630Z,89.00
2019-01-06T19:47:32.516Z,89.30
2019-01-06T19:50:20.021Z,89.40
2019-01-06T19:53:08.232Z,89.50
2019-01-06T19:56:12.870Z,89.90
2019-01-06T19:59:04.949Z,90.00
2019-01-06T20:01:56.213Z,90.50
2019-01-06T20:04:48.488Z,90.10
2019-01-06T20:07:40.863Z,90.20
2019-01-06T20:10:28.796Z,90.40
2019-01-06T20:13:25.193Z,90.50
2019-01-06T20:16:13.381Z,90.70
2019-01-06T20:19:01.565Z,90.70
2019-01-06T20:21:53.859Z,90.70
2019-01-06T20:24:47.076Z,90.80
2019-01-06T20:27:39.307Z,90.90
2019-01-06T20:30:31.377Z,90.90
2019-01-06T20:33:14.333Z,90.90
2019-01-06T20:36:02.489Z,91.00
2019-01-06T20:38:54.827Z,91.00
2019-01-06T20:41:46.829Z,91.00
2019-01-06T20:44:45.540Z,91.10
2019-01-06T20:47:53.453Z,91.10
2019-01-06T20:50:41.272Z,91.00
2019-01-06T20:53:29.125Z,91.10
2019-01-06T20:56:27.437Z,91.10
2019-01-06T20:59:32.911Z,91.10
2019-01-06T21:02:22.257Z,91.20
2019-01-06T21:05:17.217Z,91.20
2019-01-06T21:08:12.992Z,91.30
2019-01-06T21:11:01.128Z,91.30
2019-01-06T21:13:50.462Z,91.40
2019-01-06T21:16:39.321Z,91.40
2019-01-06T21:19:28.645Z,91.60
2019-01-06T21:22:24.319Z,91.60
2019-01-06T21:25:13.581Z,91.70
2019-01-06T21:28:02.907Z,91.70
2019-01-06T21:31:03.942Z,91.80
2019-01-06T21:33:53.047Z,91.80
2019-01-06T21:36:48.351Z,91.90
2019-01-06T21:39:32.446Z,92.00
2019-01-06T21:42:20.629Z,92.10
2019-01-06T21:45:08.546Z,92.10
2019-01-06T21:47:40.929Z,92.20
2019-01-06T21:50:30.227Z,92.20
2019-01-06T21:53:28.610Z,92.30
2019-01-06T21:56:16.735Z,92.30
2019-01-06T21:59:04.865Z,92.20
2019-01-06T22:02:09.541Z,92.10
2019-01-06T22:05:01.609Z,92.10
2019-01-06T22:07:53.745Z,92.20
2019-01-06T22:10:38.048Z,92.30
2019-01-06T22:13:25.524Z,92.30
2019-01-06T22:16:20.652Z,92.40
2019-01-06T22:19:25.100Z,92.50
2019-01-06T22:22:18.753Z,92.60
2019-01-06T22:25:24.513Z,92.60
2019-01-06T22:28:12.470Z,92.60
2019-01-06T22:31:00.305Z,92.60
2019-01-06T22:33:48.449Z,92.70
2019-01-06T22:36:36.353Z,92.70
2019-01-06T22:39:32.201Z,92.70
2019-01-06T22:42:21.573Z,92.80
2019-01-06T22:45:29.076Z,92.90
2019-01-06T22:48:24.249Z,93.00
2019-01-06T22:51:12.169Z,93.00
2019-01-06T22:54:00.261Z,93.00
2019-01-06T22:56:49.809Z,93.00
2019-01-06T22:59:51.088Z,93.10
2019-01-06T23:02:45.445Z,93.20
2019-01-06T23:05:33.457Z,93.30
2019-01-06T23:08:25.514Z,93.40
2019-01-06T23:11:18.243Z,93.40
2019-01-06T23:14:22.428Z,93.50
2019-01-06T23:17:14.529Z,93.60
2019-01-06T23:20:02.705Z,93.70
2019-01-06T23:22:51.313Z,93.80
2019-01-06T23:25:39.561Z,93.90
2019-01-06T23:28:32.081Z,93.90
2019-01-06T23:31:21.414Z,93.90
2019-01-06T23:34:18.287Z,93.90
2019-01-06T23:37:10.765Z,94.00
2019-01-06T23:40:02.849Z,94.00
2019-01-06T23:42:52.887Z,94.10
2019-01-06T23:45:38.649Z,94.30
2019-01-06T23:48:29.263Z,94.30
2019-01-06T23:51:27.644Z,94.30
2019-01-06T23:54:15.087Z,94.50
2019-01-06T23:57:15.792Z,94.60
